Time;durP1;ratioP1;P1;durP2;ratioP2;P2;SDS_P1;SDS_P2;PMS_P1;PMS_P2;Temp;Humidity;BMP_temperature;BMP_pressure;BME280_temperature;BME280_humidity;BME280_pressure;Samples;Min_cycle;Max_cycle;Signal;HPM_P1;HPM_P2
2022/10/15 00:00:49;;;;;;;147.10;48.00;;;11.40;99.90;;;;;;5006707;28;20054;-39
2022/10/15 00:03:15;;;;;;;129.80;45.65;;;11.30;99.90;;;;;;5006820;28;20038;-38
2022/10/15 00:05:41;;;;;;;163.93;47.40;;;11.10;99.90;;;;;;5006920;28;20077;-38
2022/10/15 00:08:08;;;;;;;202.38;51.80;;;11.50;99.90;;;;;;5006549;28;20073;-38
2022/10/15 00:10:35;;;;;;;155.88;48.33;;;12.00;99.90;;;;;;5006570;28;20399;-38
2022/10/15 00:13:01;;;;;;;128.02;43.95;;;11.30;99.90;;;;;;5006481;28;20057;-39
2022/10/15 00:15:27;;;;;;;155.63;48.28;;;11.30;99.90;;;;;;5006497;28;20496;-38
2022/10/15 00:17:52;;;;;;;216.63;53.00;;;11.50;99.90;;;;;;5007124;28;20041;-38
2022/10/15 00:20:18;;;;;;;133.60;44.10;;;11.20;99.90;;;;;;5007125;28;20599;-38
2022/10/15 00:22:44;;;;;;;120.13;46.58;;;11.20;99.90;;;;;;5006889;28;20104;-38
2022/10/15 00:25:09;;;;;;;187.50;50.03;;;12.10;99.90;;;;;;5006949;28;20061;-38
2022/10/15 00:27:36;;;;;;;146.88;49.15;;;11.30;99.90;;;;;;5007444;28;20095;-38
2022/10/15 00:30:02;;;;;;;241.60;54.15;;;11.20;99.90;;;;;;5008058;28;20048;-38
2022/10/15 00:32:30;;;;;;;154.68;50.60;;;11.20;99.90;;;;;;5007846;28;20053;-38
2022/10/15 00:34:55;;;;;;;136.60;46.78;;;11.30;99.90;;;;;;5008026;28;20139;-38
2022/10/15 00:37:21;;;;;;;150.52;48.28;;;12.10;99.90;;;;;;5007089;28;20073;-38
2022/10/15 00:39:47;;;;;;;229.80;54.10;;;11.20;99.90;;;;;;5007489;28;20046;-38
2022/10/15 00:42:13;;;;;;;147.52;48.78;;;11.30;99.90;;;;;;5007006;28;20130;-38
2022/10/15 00:44:51;;;;;;;142.35;48.10;;;11.50;99.90;;;;;;5007317;28;20447;-38
2022/10/15 00:47:19;;;;;;;133.45;48.28;;;11.00;99.90;;;;;;5006862;28;20559;-39
2022/10/15 00:49:52;;;;;;;165.13;51.75;;;11.80;99.90;;;;;;5007180;28;20049;-38
2022/10/15 00:52:46;;;;;;;163.70;50.63;;;11.20;99.90;;;;;;5006428;28;20107;-38
2022/10/15 00:55:27;;;;;;;194.52;53.30;;;11.00;99.90;;;;;;5004093;28;20128;-38
2022/10/15 00:57:54;;;;;;;166.05;51.10;;;11.00;99.90;;;;;;5006740;28;20416;-38
2022/10/15 01:00:20;;;;;;;177.32;52.70;;;11.00;99.90;;;;;;5006173;28;20046;-38
2022/10/15 01:02:46;;;;;;;168.32;53.30;;;11.00;99.90;;;;;;5006637;28;20068;-38
2022/10/15 01:05:15;;;;;;;143.73;51.88;;;11.60;99.90;;;;;;5006915;28;20050;-38
2022/10/15 01:07:40;;;;;;;265.85;63.00;;;11.40;99.90;;;;;;5007113;28;20073;-38
2022/10/15 01:10:08;;;;;;;345.73;64.78;;;11.40;99.90;;;;;;5006861;28;20074;-39
2022/10/15 01:12:52;;;;;;;268.77;59.95;;;11.00;99.90;;;;;;5006462;28;20129;-38
2022/10/15 01:15:40;;;;;;;250.63;62.22;;;11.00;99.90;;;;;;5006623;28;20046;-38
2022/10/15 01:18:31;;;;;;;298.98;64.45;;;11.00;99.90;;;;;;5007109;28;20092;-38
2022/10/15 01:21:00;;;;;;;270.15;64.53;;;11.10;99.90;;;;;;5006894;28;20060;-38
2022/10/15 01:23:40;;;;;;;214.65;59.90;;;11.20;99.90;;;;;;5006590;28;20069;-38
2022/10/15 01:26:33;;;;;;;226.02;62.47;;;11.00;99.90;;;;;;5006923;28;20041;-38
2022/10/15 01:29:23;;;;;;;228.10;63.60;;;11.40;99.90;;;;;;5006417;28;20550;-38
2022/10/15 01:32:18;;;;;;;166.98;56.55;;;11.00;99.90;;;;;;5006826;28;20042;-39
2022/10/15 01:35:04;;;;;;;192.75;59.80;;;11.80;99.90;;;;;;5005977;28;20104;-38
2022/10/15 01:37:54;;;;;;;247.48;64.65;;;11.00;99.90;;;;;;5005992;28;20046;-38
2022/10/15 01:40:29;;;;;;;329.42;72.85;;;11.00;99.90;;;;;;5005796;28;20037;-38
2022/10/15 01:43:01;;;;;;;230.65;63.88;;;11.00;99.90;;;;;;5006096;28;20052;-38
2022/10/15 01:45:39;;;;;;;213.85;64.80;;;11.40;99.90;;;;;;5006458;28;20524;-38
2022/10/15 01:48:10;;;;;;;286.48;66.15;;;11.30;99.90;;;;;;5006142;28;20081;-38
2022/10/15 01:50:41;;;;;;;230.77;65.15;;;11.20;99.90;;;;;;5004609;28;20088;-39
2022/10/15 01:53:10;;;;;;;251.68;66.10;;;11.10;99.90;;;;;;5006119;28;20049;-38
2022/10/15 01:55:36;;;;;;;233.20;63.35;;;12.10;99.90;;;;;;5005643;28;20049;-38
2022/10/15 01:58:04;;;;;;;313.20;69.32;;;11.10;99.90;;;;;;5005813;28;20763;-38
2022/10/15 02:00:30;;;;;;;205.15;64.22;;;11.10;99.90;;;;;;5005466;28;20077;-38
2022/10/15 02:03:00;;;;;;;226.60;63.03;;;11.10;99.90;;;;;;5005558;28;20073;-38
2022/10/15 02:05:32;;;;;;;197.18;63.65;;;11.00;99.90;;;;;;5005478;28;20092;-38
2022/10/15 02:08:29;;;;;;;181.98;60.35;;;11.20;99.90;;;;;;5005823;28;20512;-38
2022/10/15 02:11:03;;;;;;;203.57;61.90;;;11.10;99.90;;;;;;5005690;28;20056;-39
2022/10/15 02:13:28;;;;;;;213.98;64.85;;;11.60;99.90;;;;;;5005193;28;20072;-39
2022/10/15 02:16:24;;;;;;;180.90;60.55;;;11.50;99.90;;;;;;5005706;28;20050;-38
2022/10/15 02:18:52;;;;;;;216.85;64.40;;;11.10;99.90;;;;;;5005503;28;20077;-38
2022/10/15 02:21:39;;;;;;;209.02;62.88;;;11.30;99.90;;;;;;5005406;28;20382;-39
2022/10/15 02:24:16;;;;;;;193.55;60.13;;;11.10;99.90;;;;;;5006028;28;20045;-39
2022/10/15 02:26:43;;;;;;;223.20;61.90;;;11.20;99.90;;;;;;5005732;28;20046;-39
2022/10/15 02:29:18;;;;;;;331.58;68.25;;;11.10;99.90;;;;;;5006121;28;20053;-39
2022/10/15 02:31:46;;;;;;;165.30;58.50;;;12.00;99.90;;;;;;5005624;28;20057;-39
2022/10/15 02:34:18;;;;;;;238.75;65.43;;;11.20;99.90;;;;;;5005458;28;20591;-39
2022/10/15 02:36:45;;;;;;;174.27;58.25;;;11.40;99.90;;;;;;5005369;28;20504;-38
2022/10/15 02:39:14;;;;;;;236.60;62.70;;;11.20;99.90;;;;;;5005823;28;20425;-38
2022/10/15 02:41:42;;;;;;;179.43;57.95;;;11.10;99.90;;;;;;5005316;28;20041;-38
2022/10/15 02:44:07;;;;;;;234.20;62.28;;;11.80;99.90;;;;;;5005490;28;20099;-38
2022/10/15 02:46:33;;;;;;;186.23;58.95;;;11.10;99.90;;;;;;5005850;28;20034;-39
2022/10/15 02:48:59;;;;;;;173.40;56.92;;;11.70;99.90;;;;;;5009011;28;20172;-38
2022/10/15 02:51:24;;;;;;;299.88;66.82;;;11.10;99.90;;;;;;5008636;28;20056;-38
2022/10/15 02:53:50;;;;;;;268.02;64.22;;;11.50;99.90;;;;;;5008840;28;20045;-38
2022/10/15 02:56:15;;;;;;;187.63;57.03;;;11.20;99.90;;;;;;5008590;28;20052;-39
2022/10/15 02:58:41;;;;;;;243.07;60.17;;;11.20;99.90;;;;;;5008488;28;20053;-38
2022/10/15 03:01:07;;;;;;;153.68;55.53;;;11.00;99.90;;;;;;5008572;28;20034;-39
2022/10/15 03:03:32;;;;;;;185.40;58.67;;;11.00;99.90;;;;;;5008383;28;20508;-39
2022/10/15 03:05:58;;;;;;;219.05;58.00;;;11.00;99.90;;;;;;5008782;28;20077;-38
2022/10/15 03:08:24;;;;;;;343.63;66.43;;;11.20;99.90;;;;;;5008846;28;20202;-38
2022/10/15 03:10:49;;;;;;;172.60;55.58;;;11.00;99.90;;;;;;5009152;28;20554;-38
2022/10/15 03:13:15;;;;;;;170.70;52.88;;;11.10;99.90;;;;;;5009217;28;20452;-39
2022/10/15 03:15:41;;;;;;;143.45;52.58;;;11.10;99.90;;;;;;5008938;28;20125;-38
2022/10/15 03:18:07;;;;;;;148.65;52.75;;;11.50;99.90;;;;;;5008626;28;20046;-38
2022/10/15 03:20:32;;;;;;;152.73;53.55;;;11.00;99.90;;;;;;5008821;28;20056;-39
2022/10/15 03:22:58;;;;;;;218.65;55.08;;;11.40;99.90;;;;;;5008764;28;20575;-38
2022/10/15 03:25:24;;;;;;;190.07;55.28;;;11.60;99.90;;;;;;5008731;28;20056;-39
2022/10/15 03:27:51;;;;;;;151.20;52.22;;;11.10;99.90;;;;;;5008457;28;20391;-38
2022/10/15 03:30:17;;;;;;;162.68;52.03;;;11.20;99.90;;;;;;5008483;28;20054;-38
2022/10/15 03:32:43;;;;;;;162.07;52.50;;;11.10;99.90;;;;;;5008063;28;20060;-39
2022/10/15 03:35:09;;;;;;;142.10;51.28;;;11.40;99.90;;;;;;5008256;28;20053;-39
2022/10/15 03:37:34;;;;;;;155.85;51.00;;;11.10;99.90;;;;;;5007763;28;20171;-38
2022/10/15 03:40:00;;;;;;;130.35;48.42;;;11.10;99.90;;;;;;5007931;28;20117;-39
2022/10/15 03:42:26;;;;;;;121.22;48.85;;;11.00;99.90;;;;;;5008125;28;20133;-38
2022/10/15 03:44:52;;;;;;;146.60;50.25;;;11.00;99.90;;;;;;5007811;28;20484;-38
2022/10/15 03:47:17;;;;;;;146.82;48.92;;;11.40;99.90;;;;;;5007737;28;20526;-38
2022/10/15 03:49:43;;;;;;;225.10;53.08;;;11.20;99.90;;;;;;5007482;28;20500;-39
2022/10/15 03:52:09;;;;;;;143.48;48.55;;;11.40;99.90;;;;;;5008131;28;20050;-38
2022/10/15 03:54:34;;;;;;;217.20;52.80;;;11.20;99.90;;;;;;5007669;28;20514;-38
2022/10/15 03:57:00;;;;;;;117.97;45.78;;;11.10;99.90;;;;;;5007181;28;20034;-39
2022/10/15 03:59:26;;;;;;;132.13;47.33;;;11.00;99.90;;;;;;5007622;28;20073;-38
2022/10/15 04:01:52;;;;;;;151.43;47.85;;;11.00;99.90;;;;;;5006386;28;20054;-39
2022/10/15 04:04:17;;;;;;;117.75;46.05;;;11.00;99.90;;;;;;5007949;28;20049;-39
2022/10/15 04:06:46;;;;;;;128.57;45.75;;;11.40;99.90;;;;;;5007510;28;20129;-39
2022/10/15 04:09:12;;;;;;;114.68;43.40;;;11.00;99.90;;;;;;5007381;28;20049;-39
2022/10/15 04:11:38;;;;;;;116.90;44.75;;;10.90;99.90;;;;;;5007401;28;20097;-38
2022/10/15 04:14:05;;;;;;;125.22;45.05;;;11.60;99.90;;;;;;5007771;28;20053;-38
2022/10/15 04:16:31;;;;;;;104.90;42.30;;;11.00;99.90;;;;;;5008551;28;20053;-38
2022/10/15 04:18:57;;;;;;;137.85;45.92;;;11.00;99.90;;;;;;5007891;28;20042;-38
2022/10/15 04:21:24;;;;;;;281.30;54.40;;;10.90;99.90;;;;;;5008125;28;20053;-38
2022/10/15 04:23:49;;;;;;;131.98;45.30;;;11.00;99.90;;;;;;5007712;28;20050;-39
2022/10/15 04:26:15;;;;;;;230.35;53.42;;;11.00;99.90;;;;;;5007947;28;20399;-38
2022/10/15 04:28:41;;;;;;;143.10;47.38;;;10.90;99.90;;;;;;5007418;28;20145;-38
2022/10/15 04:31:07;;;;;;;213.10;51.03;;;10.80;99.90;;;;;;5007316;28;20076;-38
2022/10/15 04:33:32;;;;;;;124.47;46.80;;;10.90;99.90;;;;;;5007198;28;20050;-38
2022/10/15 04:36:04;;;;;;;151.00;49.42;;;10.90;99.90;;;;;;5006770;28;20530;-38
2022/10/15 04:38:30;;;;;;;146.27;48.17;;;10.90;99.90;;;;;;5007040;28;20041;-38
2022/10/15 04:41:08;;;;;;;160.63;48.58;;;10.80;99.90;;;;;;5005347;28;20439;-38
2022/10/15 04:43:34;;;;;;;221.23;51.92;;;10.90;99.90;;;;;;5007017;28;20045;-38
2022/10/15 04:46:01;;;;;;;155.48;49.50;;;11.40;99.90;;;;;;5006326;28;20046;-38
2022/10/15 04:48:28;;;;;;;115.72;46.13;;;10.90;99.90;;;;;;5006462;28;20037;-38
2022/10/15 04:50:55;;;;;;;127.10;46.70;;;11.50;99.90;;;;;;5006429;28;20049;-38
2022/10/15 04:53:20;;;;;;;183.73;51.25;;;10.90;99.90;;;;;;5006791;28;20420;-38
2022/10/15 04:55:46;;;;;;;126.50;46.10;;;10.70;99.90;;;;;;5006622;28;20045;-38
2022/10/15 04:58:12;;;;;;;194.75;52.92;;;11.00;99.90;;;;;;5006548;28;20081;-39
2022/10/15 05:00:39;;;;;;;162.57;50.83;;;10.70;99.90;;;;;;5006513;28;20116;-38
2022/10/15 05:03:05;;;;;;;163.05;49.13;;;11.00;99.90;;;;;;5006742;28;20081;-38
2022/10/15 05:05:31;;;;;;;131.75;50.05;;;11.50;99.90;;;;;;5006581;28;20049;-38
2022/10/15 05:08:03;;;;;;;134.50;47.83;;;11.70;99.90;;;;;;5006302;28;20049;-39
2022/10/15 05:10:29;;;;;;;138.38;49.53;;;10.60;99.90;;;;;;5005683;28;20077;-38
2022/10/15 05:12:55;;;;;;;135.52;47.83;;;10.90;99.90;;;;;;5006021;28;20088;-38
2022/10/15 05:15:21;;;;;;;156.35;51.72;;;10.40;99.90;;;;;;5006482;28;20381;-38
2022/10/15 05:17:46;;;;;;;150.20;50.42;;;10.70;99.90;;;;;;5005794;28;20038;-38
2022/10/15 05:20:12;;;;;;;132.32;46.85;;;10.50;99.90;;;;;;5006285;28;20038;-38
2022/10/15 05:22:37;;;;;;;183.50;51.83;;;10.10;99.90;;;;;;5006012;28;20073;-38
2022/10/15 05:25:03;;;;;;;137.88;48.80;;;10.70;99.90;;;;;;5005842;28;20129;-38
2022/10/15 05:27:29;;;;;;;180.93;53.90;;;10.20;99.90;;;;;;5005828;28;20290;-38
2022/10/15 05:29:55;;;;;;;155.45;53.00;;;10.60;99.90;;;;;;5005550;28;20045;-38
2022/10/15 05:32:20;;;;;;;232.30;56.90;;;10.20;99.90;;;;;;5005910;28;20045;-39
2022/10/15 05:34:46;;;;;;;216.75;56.38;;;10.10;99.90;;;;;;5005543;28;20056;-38
2022/10/15 05:37:11;;;;;;;186.63;53.03;;;10.20;99.90;;;;;;5005794;28;20042;-38
2022/10/15 05:39:37;;;;;;;134.52;50.75;;;10.30;99.90;;;;;;5005893;28;20038;-38
2022/10/15 05:42:03;;;;;;;182.82;55.60;;;10.10;99.90;;;;;;5005845;28;20042;-38
2022/10/15 05:44:28;;;;;;;138.93;53.38;;;10.40;99.90;;;;;;5006047;28;20046;-38
2022/10/15 05:46:54;;;;;;;154.85;54.90;;;10.10;99.90;;;;;;5005995;28;20128;-38
2022/10/15 05:49:20;;;;;;;169.25;54.33;;;10.60;99.90;;;;;;5006231;28;20057;-38
2022/10/15 05:51:45;;;;;;;148.18;55.00;;;10.80;99.90;;;;;;5006134;28;20095;-38
2022/10/15 05:54:11;;;;;;;200.00;57.42;;;11.10;99.90;;;;;;5006429;28;20042;-38
2022/10/15 05:56:36;;;;;;;254.90;61.58;;;10.30;99.90;;;;;;5006098;28;20459;-38
2022/10/15 05:59:03;;;;;;;148.40;52.53;;;11.00;99.90;;;;;;5005832;28;20038;-38
2022/10/15 06:01:29;;;;;;;171.98;57.10;;;10.60;99.90;;;;;;5005749;28;20081;-38
2022/10/15 06:03:54;;;;;;;203.80;59.38;;;10.20;99.90;;;;;;5005862;28;20470;-39
2022/10/15 06:06:25;;;;;;;194.48;57.58;;;10.50;99.90;;;;;;5006018;28;20488;-38
2022/10/15 06:08:52;;;;;;;194.68;57.72;;;10.50;99.90;;;;;;5005838;28;20044;-38
2022/10/15 06:11:19;;;;;;;181.88;57.80;;;11.60;99.90;;;;;;5005818;28;20129;-38
2022/10/15 06:13:45;;;;;;;158.07;56.22;;;10.50;99.90;;;;;;5005635;28;20050;-38
2022/10/15 06:16:12;;;;;;;185.35;59.17;;;10.60;99.90;;;;;;5005239;28;20038;-38
2022/10/15 06:18:38;;;;;;;193.25;62.22;;;10.50;99.90;;;;;;5005882;28;20584;-38
2022/10/15 06:21:05;;;;;;;153.40;56.38;;;10.60;99.90;;;;;;5007236;28;20111;-38
2022/10/15 06:23:31;;;;;;;282.13;65.13;;;10.60;99.90;;;;;;5009201;28;20116;-38
2022/10/15 06:26:02;;;;;;;195.23;59.65;;;10.60;99.90;;;;;;5009124;28;20088;-38
2022/10/15 06:28:27;;;;;;;216.52;60.08;;;11.30;99.90;;;;;;5009637;28;20042;-38
2022/10/15 06:30:53;;;;;;;263.13;63.92;;;10.70;99.90;;;;;;5009234;28;20042;-38
2022/10/15 06:33:18;;;;;;;165.23;58.47;;;10.70;99.90;;;;;;5009836;28;20049;-38
2022/10/15 06:35:44;;;;;;;192.73;61.75;;;10.80;99.90;;;;;;5009780;28;20041;-38
2022/10/15 06:38:10;;;;;;;186.52;59.60;;;10.60;99.90;;;;;;5009559;28;20038;-38
2022/10/15 06:40:37;;;;;;;206.73;62.70;;;10.80;99.90;;;;;;5009234;28;20045;-38
2022/10/15 06:43:07;;;;;;;151.10;56.58;;;10.80;99.90;;;;;;5009341;28;20042;-38
2022/10/15 06:45:35;;;;;;;164.95;56.78;;;10.90;99.90;;;;;;5024511;28;20056;-38
2022/10/15 06:48:03;;;;;;;189.60;59.55;;;11.30;99.90;;;;;;5008931;28;20682;-39
2022/10/15 06:50:30;;;;;;;222.73;63.17;;;11.80;99.90;;;;;;5009152;28;20057;-39
2022/10/15 06:52:56;;;;;;;185.77;61.80;;;11.10;99.90;;;;;;5008917;28;20053;-38
2022/10/15 06:55:22;;;;;;;207.52;61.95;;;11.00;99.90;;;;;;5008967;28;20103;-39
2022/10/15 06:57:49;;;;;;;167.63;57.80;;;10.80;99.90;;;;;;5009210;28;20046;-38
2022/10/15 07:00:15;;;;;;;179.55;58.97;;;11.20;99.90;;;;;;5009019;28;20049;-38
2022/10/15 07:02:41;;;;;;;197.80;60.80;;;11.10;99.90;;;;;;5009153;28;20042;-38
2022/10/15 07:05:07;;;;;;;144.40;55.17;;;11.00;99.90;;;;;;5008713;28;20149;-39
2022/10/15 07:07:33;;;;;;;168.32;58.20;;;11.20;99.90;;;;;;5008909;28;20037;-38
2022/10/15 07:09:59;;;;;;;142.77;55.38;;;11.20;99.90;;;;;;5008657;28;20033;-38
2022/10/15 07:12:25;;;;;;;171.95;58.47;;;11.20;99.90;;;;;;5008570;28;20482;-38
2022/10/15 07:14:50;;;;;;;153.70;56.25;;;11.40;99.90;;;;;;5008554;28;20061;-38
2022/10/15 07:17:16;;;;;;;143.52;56.33;;;11.30;99.90;;;;;;5008325;28;20112;-38
2022/10/15 07:19:42;;;;;;;229.85;61.75;;;11.40;99.90;;;;;;5009110;28;20402;-39
2022/10/15 07:22:09;;;;;;;182.32;59.45;;;11.50;99.90;;;;;;5008089;28;20100;-38
2022/10/15 07:24:35;;;;;;;157.68;56.75;;;12.40;99.90;;;;;;5008106;28;20657;-38
2022/10/15 07:27:01;;;;;;;157.63;56.88;;;11.60;99.90;;;;;;5008865;28;20157;-39
2022/10/15 07:29:26;;;;;;;149.38;55.00;;;12.00;99.90;;;;;;5008956;28;20046;-39
2022/10/15 07:31:52;;;;;;;135.00;53.22;;;11.60;99.90;;;;;;5008415;28;20085;-38
2022/10/15 07:34:18;;;;;;;122.50;50.97;;;11.60;99.90;;;;;;5008702;28;20496;-39
2022/10/15 07:36:43;;;;;;;121.25;52.55;;;12.20;99.90;;;;;;5008222;28;20049;-38
2022/10/15 07:39:09;;;;;;;200.95;57.85;;;11.80;99.90;;;;;;5008006;28;20041;-38
2022/10/15 07:41:35;;;;;;;133.40;53.42;;;12.00;99.90;;;;;;5008185;28;20111;-38
2022/10/15 07:44:01;;;;;;;153.77;55.88;;;12.10;99.90;;;;;;5007877;28;20078;-38
2022/10/15 07:46:27;;;;;;;115.75;50.72;;;12.20;99.90;;;;;;5008381;28;20480;-38
2022/10/15 07:48:53;;;;;;;171.07;56.15;;;12.20;99.90;;;;;;5008296;28;20052;-39
2022/10/15 07:51:18;;;;;;;121.57;53.63;;;12.30;99.90;;;;;;5008000;28;20041;-39
2022/10/15 07:53:46;;;;;;;163.77;55.95;;;12.30;99.90;;;;;;5008531;28;20069;-39
2022/10/15 07:56:13;;;;;;;118.45;50.72;;;12.60;99.90;;;;;;5007893;28;20451;-38
2022/10/15 07:58:39;;;;;;;116.32;51.00;;;12.90;99.90;;;;;;5008592;28;20079;-38
2022/10/15 08:01:06;;;;;;;118.75;51.13;;;12.70;99.90;;;;;;5007431;28;20046;-38
2022/10/15 08:03:32;;;;;;;94.63;44.97;;;12.70;99.90;;;;;;5007960;28;20605;-38
2022/10/15 08:06:03;;;;;;;104.50;46.75;;;12.70;99.90;;;;;;5007797;28;20053;-38
2022/10/15 08:08:30;;;;;;;93.35;46.75;;;12.60;99.90;;;;;;5007664;28;20042;-39
2022/10/15 08:10:56;;;;;;;83.72;43.90;;;13.00;99.90;;;;;;5007995;28;20048;-38
2022/10/15 08:13:23;;;;;;;96.43;47.67;;;12.50;99.90;;;;;;5007528;28;20065;-38
2022/10/15 08:15:48;;;;;;;99.80;45.78;;;12.70;99.90;;;;;;5007708;28;20045;-39
2022/10/15 08:18:14;;;;;;;97.43;47.05;;;12.50;99.90;;;;;;5007368;28;20041;-38
2022/10/15 08:20:41;;;;;;;81.97;45.75;;;13.00;99.90;;;;;;5007521;28;20070;-39
2022/10/15 08:23:13;;;;;;;80.32;43.63;;;12.80;99.90;;;;;;5007255;28;20536;-38
2022/10/15 08:25:39;;;;;;;87.40;45.42;;;13.00;99.90;;;;;;5007286;28;20052;-38
2022/10/15 08:28:05;;;;;;;82.40;44.28;;;13.10;99.90;;;;;;5006890;28;20093;-38
2022/10/15 08:30:31;;;;;;;107.07;47.90;;;13.30;99.90;;;;;;5006940;28;20054;-38
2022/10/15 08:32:56;;;;;;;87.05;45.72;;;13.40;99.90;;;;;;5007427;28;20128;-38
2022/10/15 08:35:22;;;;;;;67.00;41.80;;;13.50;99.90;;;;;;5006820;28;20172;-39
2022/10/15 08:37:48;;;;;;;66.68;41.17;;;13.50;99.90;;;;;;5007220;28;20101;-38
2022/10/15 08:40:14;;;;;;;87.57;43.85;;;13.60;99.90;;;;;;5006966;28;20092;-39
2022/10/15 08:42:42;;;;;;;72.55;42.20;;;13.70;99.90;;;;;;5006904;28;20061;-38
2022/10/15 08:45:18;;;;;;;67.03;40.22;;;13.80;99.90;;;;;;5007209;28;20798;-38
2022/10/15 08:48:02;;;;;;;67.05;39.50;;;13.80;99.90;;;;;;5007176;28;20033;-39
2022/10/15 08:50:58;;;;;;;61.88;39.47;;;13.70;99.90;;;;;;5007057;28;20049;-39
2022/10/15 08:53:26;;;;;;;60.50;37.33;;;13.60;99.90;;;;;;4996787;28;20412;-38
2022/10/15 08:55:55;;;;;;;58.80;38.30;;;13.50;99.90;;;;;;5006786;28;20587;-39
2022/10/15 08:58:35;;;;;;;63.30;39.58;;;13.50;99.90;;;;;;5006285;28;20414;-38
2022/10/15 09:01:05;;;;;;;68.75;40.90;;;13.50;99.90;;;;;;5006515;28;20088;-39
2022/10/15 09:03:38;;;;;;;68.82;41.50;;;13.50;99.90;;;;;;5006865;28;20046;-38
2022/10/15 09:06:37;;;;;;;62.00;40.80;;;13.50;99.90;;;;;;5007169;28;20052;-38
2022/10/15 09:09:14;;;;;;;74.43;42.88;;;13.50;99.90;;;;;;4994292;28;20054;-38
2022/10/15 09:11:53;;;;;;;64.95;40.25;;;13.60;99.90;;;;;;5006699;28;20046;-38
2022/10/15 09:14:25;;;;;;;69.70;41.10;;;13.60;99.90;;;;;;5006379;28;20062;-38
2022/10/15 09:16:51;;;;;;;56.38;38.83;;;13.70;99.90;;;;;;5005463;28;20037;-39
2022/10/15 09:19:19;;;;;;;66.68;42.95;;;13.70;99.90;;;;;;5006027;28;20053;-38
2022/10/15 09:21:50;;;;;;;57.78;39.05;;;14.00;99.90;;;;;;5006475;28;20041;-38
2022/10/15 09:24:24;;;;;;;60.35;40.35;;;13.90;99.90;;;;;;5006531;28;20512;-38
2022/10/15 09:26:52;;;;;;;64.32;40.70;;;14.00;99.90;;;;;;5006555;28;20096;-38
2022/10/15 09:29:45;;;;;;;58.13;38.47;;;14.00;99.90;;;;;;5006238;28;20519;-38
2022/10/15 09:32:33;;;;;;;53.38;35.50;;;13.90;99.90;;;;;;5003298;28;20494;-38
2022/10/15 09:34:59;;;;;;;49.25;32.85;;;13.90;99.90;;;;;;5006437;28;20163;-38
2022/10/15 09:37:46;;;;;;;55.72;35.53;;;14.00;99.90;;;;;;5006036;28;20488;-38
2022/10/15 09:40:54;;;;;;;46.90;32.85;;;14.00;99.90;;;;;;5006747;28;20080;-38
2022/10/15 09:43:29;;;;;;;47.70;30.50;;;14.00;99.90;;;;;;5006403;28;20133;-38
2022/10/15 09:45:56;;;;;;;41.45;30.38;;;14.40;99.90;;;;;;5006278;28;20046;-38
2022/10/15 09:48:24;;;;;;;41.65;28.95;;;14.00;99.90;;;;;;5006269;28;20052;-39
2022/10/15 09:50:57;;;;;;;45.17;30.50;;;14.10;99.90;;;;;;5006034;28;20049;-39
2022/10/15 09:53:44;;;;;;;45.15;29.20;;;13.80;99.90;;;;;;5006028;28;20081;-38
2022/10/15 09:56:17;;;;;;;43.28;27.08;;;13.80;99.90;;;;;;5008117;28;20403;-38
2022/10/15 09:58:51;;;;;;;45.83;27.67;;;13.70;99.90;;;;;;5010341;28;20076;-38
2022/10/15 10:01:25;;;;;;;44.63;28.15;;;13.70;99.90;;;;;;5010256;28;20100;-38
2022/10/15 10:03:53;;;;;;;48.47;29.15;;;13.50;99.90;;;;;;5010684;28;20054;-38
2022/10/15 10:06:22;;;;;;;43.92;26.98;;;13.50;99.90;;;;;;5010574;28;20046;-38
2022/10/15 10:08:54;;;;;;;48.17;27.73;;;13.50;99.90;;;;;;5010919;28;20050;-38
2022/10/15 10:11:22;;;;;;;46.55;28.08;;;13.40;99.90;;;;;;5010252;28;20444;-38
2022/10/15 10:13:47;;;;;;;50.65;28.33;;;13.50;99.90;;;;;;5009866;28;20133;-38
2022/10/15 10:16:15;;;;;;;48.33;28.98;;;13.40;99.90;;;;;;5008909;28;20052;-40
2022/10/15 10:18:49;;;;;;;48.67;27.38;;;13.30;99.90;;;;;;5009372;28;20037;-40
2022/10/15 10:21:27;;;;;;;48.88;27.23;;;13.30;99.90;;;;;;5009709;28;20459;-40
2022/10/15 10:23:52;;;;;;;49.53;28.60;;;13.40;99.90;;;;;;5009689;28;20045;-40
2022/10/15 10:26:19;;;;;;;50.42;26.73;;;13.60;99.90;;;;;;5009689;28;20559;-40
2022/10/15 10:28:55;;;;;;;46.28;27.08;;;13.40;99.90;;;;;;5009713;28;20407;-41
2022/10/15 10:31:34;;;;;;;44.90;26.60;;;13.40;99.90;;;;;;5009612;28;20432;-40
2022/10/15 10:34:02;;;;;;;53.00;28.58;;;13.40;99.90;;;;;;5009659;28;20302;-40
2022/10/15 10:36:32;;;;;;;42.08;25.23;;;13.50;99.90;;;;;;5009273;28;20092;-40
2022/10/15 10:39:12;;;;;;;43.53;24.95;;;13.60;99.90;;;;;;5009138;28;20542;-40
2022/10/15 10:41:47;;;;;;;47.30;26.02;;;13.60;99.90;;;;;;5009239;28;20357;-40
2022/10/15 10:44:27;;;;;;;39.60;23.60;;;13.60;99.90;;;;;;5009099;28;20064;-41
2022/10/15 10:47:13;;;;;;;39.50;23.75;;;13.70;99.90;;;;;;5009134;28;20163;-40
2022/10/15 10:49:44;;;;;;;39.85;24.40;;;13.80;99.90;;;;;;5008674;28;20460;-40
2022/10/15 10:52:21;;;;;;;35.75;23.00;;;14.00;99.90;;;;;;5008643;28;20045;-40
2022/10/15 10:54:57;;;;;;;36.60;23.35;;;14.30;99.90;;;;;;5008706;28;20100;-40
2022/10/15 10:57:46;;;;;;;33.17;20.95;;;14.60;99.90;;;;;;5008681;28;20081;-40
2022/10/15 11:00:17;;;;;;;29.13;20.92;;;14.90;99.90;;;;;;5008653;28;20042;-40
2022/10/15 11:02:43;;;;;;;30.58;21.00;;;15.00;99.90;;;;;;5008481;28;20045;-40
2022/10/15 11:05:10;;;;;;;28.52;19.60;;;15.40;99.90;;;;;;5008584;28;20400;-41
2022/10/15 11:07:44;;;;;;;27.75;17.45;;;15.20;99.90;;;;;;5007469;28;20065;-40
2022/10/15 11:10:19;;;;;;;27.70;17.98;;;15.30;99.90;;;;;;5009032;28;20050;-40
2022/10/15 11:13:09;;;;;;;26.80;18.90;;;15.30;99.90;;;;;;5008777;28;20265;-40
2022/10/15 11:15:51;;;;;;;25.30;17.45;;;15.40;99.90;;;;;;5008172;28;20500;-40
2022/10/15 11:18:31;;;;;;;25.33;17.63;;;15.50;99.90;;;;;;5008450;28;20488;-40
2022/10/15 11:21:34;;;;;;;27.90;19.27;;;15.50;99.90;;;;;;5008884;28;20056;-40
2022/10/15 11:24:18;;;;;;;23.98;18.52;;;15.50;99.90;;;;;;5008370;28;20053;-40
2022/10/15 11:27:18;;;;;;;22.88;16.70;;;15.50;99.90;;;;;;5008033;28;20049;-41
2022/10/15 11:30:00;;;;;;;20.95;16.65;;;15.50;99.90;;;;;;5008192;28;20120;-40
2022/10/15 11:32:48;;;;;;;22.67;17.50;;;15.50;99.90;;;;;;5008070;28;20394;-40
2022/10/15 11:35:39;;;;;;;24.30;18.33;;;15.60;99.90;;;;;;5008100;28;20445;-40
2022/10/15 11:38:43;;;;;;;24.45;17.67;;;15.70;99.90;;;;;;5007903;28;20081;-40
2022/10/15 11:41:17;;;;;;;22.90;17.33;;;15.50;99.90;;;;;;5007992;28;20049;-40
2022/10/15 11:44:01;;;;;;;22.80;16.65;;;15.50;99.90;;;;;;5007708;28;20050;-41
2022/10/15 11:47:09;;;;;;;23.38;16.73;;;15.60;99.90;;;;;;5007879;28;20069;-41
2022/10/15 11:49:58;;;;;;;20.30;15.95;;;15.50;99.90;;;;;;5007263;28;20500;-40
2022/10/15 11:52:42;;;;;;;21.83;16.60;;;15.50;99.90;;;;;;5007698;28;20550;-40
2022/10/15 11:55:20;;;;;;;18.92;14.57;;;15.50;99.90;;;;;;5007909;28;20467;-40
2022/10/15 11:57:50;;;;;;;19.27;15.40;;;15.50;99.90;;;;;;5007899;28;20395;-41
2022/10/15 12:00:28;;;;;;;19.05;15.13;;;15.50;99.90;;;;;;5008047;28;20041;-40
2022/10/15 12:02:55;;;;;;;19.25;15.13;;;15.50;99.90;;;;;;5007583;28;20060;-40
2022/10/15 12:06:04;;;;;;;19.15;14.43;;;15.40;99.90;;;;;;5007888;28;20353;-40
2022/10/15 12:08:34;;;;;;;17.92;14.02;;;15.40;99.90;;;;;;5004818;28;20093;-40
2022/10/15 12:11:21;;;;;;;19.20;14.20;;;15.40;99.90;;;;;;5007648;28;20050;-40
2022/10/15 12:14:14;;;;;;;16.88;13.25;;;15.40;99.90;;;;;;5007282;28;20504;-40
2022/10/15 12:16:58;;;;;;;18.67;14.73;;;15.50;99.90;;;;;;5007413;28;20104;-41
2022/10/15 12:19:50;;;;;;;18.98;13.65;;;15.50;99.90;;;;;;5007552;28;20042;-40
2022/10/15 12:22:36;;;;;;;18.58;13.05;;;15.70;99.90;;;;;;5007892;28;20049;-41
2022/10/15 12:25:04;;;;;;;17.05;13.07;;;15.80;99.90;;;;;;5008012;28;20144;-40
2022/10/15 12:27:35;;;;;;;16.83;13.98;;;15.80;99.90;;;;;;5007084;28;20057;-41
2022/10/15 12:30:06;;;;;;;17.50;13.13;;;15.80;99.90;;;;;;5007449;28;20049;-40
2022/10/15 12:32:45;;;;;;;16.55;13.40;;;15.90;99.90;;;;;;5007140;28;20056;-40
2022/10/15 12:35:13;;;;;;;19.88;13.90;;;16.00;99.90;;;;;;5006885;28;20049;-40
2022/10/15 12:37:41;;;;;;;16.70;12.82;;;16.20;99.90;;;;;;5006859;28;20077;-40
2022/10/15 12:40:27;;;;;;;15.85;12.43;;;16.30;99.90;;;;;;5007064;28;20360;-40